Time;durP1;ratioP1;P1;durP2;ratioP2;P2;SDS_P1;SDS_P2;PMS_P1;PMS_P2;Temp;Humidity;BMP_temperature;BMP_pressure;BME280_temperature;BME280_humidity;BME280_pressure;Samples;Min_cycle;Max_cycle;Signal;HPM_P1;HPM_P2
2022/08/20 00:00:16;;;;;;;26.30;10.88;;;23.10;99.90;;;;;;4955548;28;20102;-73
2022/08/20 00:02:47;;;;;;;17.02;9.63;;;23.10;99.90;;;;;;4958065;28;20027;-74
2022/08/20 00:05:15;;;;;;;21.05;8.85;;;23.10;99.90;;;;;;4960595;28;20386;-73
2022/08/20 00:07:40;;;;;;;20.58;10.45;;;23.20;99.90;;;;;;4955401;28;20054;-74
2022/08/20 00:10:08;;;;;;;24.67;9.98;;;23.20;99.90;;;;;;4955640;28;20454;-73
2022/08/20 00:12:36;;;;;;;22.40;9.32;;;23.20;99.90;;;;;;4955224;28;20102;-73
2022/08/20 00:15:04;;;;;;;17.10;9.40;;;23.20;99.90;;;;;;4955221;28;20027;-74
2022/08/20 00:17:36;;;;;;;18.80;9.65;;;23.20;99.90;;;;;;4960204;28;20055;-70
2022/08/20 00:20:07;;;;;;;;;;;23.10;99.90;;;;;;4955453;28;20051;-71
2022/08/20 00:22:33;;;;;;;22.70;9.90;;;23.10;99.90;;;;;;4954810;28;19965;-73
2022/08/20 00:24:59;;;;;;;22.13;10.50;;;23.00;99.90;;;;;;4955293;28;20020;-74
2022/08/20 00:27:24;;;;;;;23.08;11.07;;;22.90;99.90;;;;;;4955528;29;20036;-73
2022/08/20 00:29:51;;;;;;;21.83;10.88;;;22.90;99.90;;;;;;4955500;28;20019;-73
2022/08/20 00:32:17;;;;;;;22.27;12.10;;;22.80;99.90;;;;;;4954553;28;20027;-74
2022/08/20 00:34:43;;;;;;;21.58;11.18;;;22.80;99.90;;;;;;4955387;28;20023;-72
2022/08/20 00:37:08;;;;;;;19.75;11.10;;;22.90;99.90;;;;;;4955182;28;20126;-74
2022/08/20 00:39:34;;;;;;;24.60;12.45;;;22.80;99.90;;;;;;4955516;28;20098;-72
2022/08/20 00:42:01;;;;;;;20.70;12.15;;;22.70;99.90;;;;;;4955208;28;20129;-74
2022/08/20 00:44:27;;;;;;;26.08;12.70;;;22.60;99.90;;;;;;4954655;28;20039;-75
2022/08/20 00:46:54;;;;;;;22.25;13.07;;;22.60;99.90;;;;;;4955390;28;20089;-74
2022/08/20 00:49:28;;;;;;;19.17;11.25;;;22.60;99.90;;;;;;4955166;28;20050;-71
2022/08/20 00:52:08;;;;;;;21.77;12.75;;;22.60;99.90;;;;;;4954795;28;20070;-74
2022/08/20 00:54:53;;;;;;;23.63;12.70;;;22.70;99.90;;;;;;4955214;28;20031;-72
2022/08/20 00:57:29;;;;;;;22.40;13.05;;;22.80;99.90;;;;;;4955026;28;20049;-75
2022/08/20 00:59:57;;;;;;;25.00;12.70;;;22.70;99.90;;;;;;4955057;28;20111;-70
2022/08/20 01:02:26;;;;;;;33.40;15.45;;;22.60;99.90;;;;;;4954811;28;20118;-74
2022/08/20 01:04:53;;;;;;;21.45;13.13;;;22.50;99.90;;;;;;4955069;28;20501;-74
2022/08/20 01:07:24;;;;;;;32.17;14.98;;;22.40;99.90;;;;;;4954792;28;20023;-71
2022/08/20 01:09:50;;;;;;;21.77;13.52;;;22.30;99.90;;;;;;4953604;28;20463;-72
2022/08/20 01:12:17;;;;;;;22.98;13.68;;;22.30;99.90;;;;;;4950979;28;20038;-75
2022/08/20 01:14:45;;;;;;;25.67;12.48;;;22.30;99.90;;;;;;4952568;28;20031;-74
2022/08/20 01:17:16;;;;;;;24.83;12.50;;;22.30;99.90;;;;;;4952324;29;20043;-74
2022/08/20 01:20:12;;;;;;;23.17;13.38;;;22.40;99.90;;;;;;4952214;28;20381;-73
2022/08/20 01:26:02;;;;;;;23.25;12.77;;;22.50;99.90;;;;;;4952941;28;20474;-65
2022/08/20 01:28:52;;;;;;;26.50;12.98;;;22.30;99.90;;;;;;4954184;28;20035;-72
2022/08/20 01:31:21;;;;;;;24.30;12.48;;;22.30;99.90;;;;;;4970959;28;20736;-72
2022/08/20 01:33:47;;;;;;;18.35;11.98;;;22.20;99.90;;;;;;4971104;28;20142;-74
2022/08/20 01:36:14;;;;;;;24.50;12.30;;;22.20;99.90;;;;;;4971555;28;20042;-73
2022/08/20 01:38:41;;;;;;;24.25;12.98;;;22.20;99.90;;;;;;4971667;28;20562;-75
2022/08/20 01:41:21;;;;;;;18.58;11.57;;;22.00;99.90;;;;;;4971381;28;20034;-75
2022/08/20 01:43:49;;;;;;;22.17;13.07;;;22.00;99.90;;;;;;4971367;28;20043;-73
2022/08/20 01:46:16;;;;;;;24.67;12.45;;;21.90;99.90;;;;;;4971095;28;20066;-74
2022/08/20 01:48:43;;;;;;;18.65;11.75;;;22.00;99.90;;;;;;4971270;28;20035;-75
2022/08/20 01:51:16;;;;;;;19.80;11.10;;;21.90;99.90;;;;;;4971056;28;20380;-75
2022/08/20 01:53:46;;;;;;;20.27;10.27;;;21.90;99.90;;;;;;4971763;28;20030;-74
2022/08/20 01:56:16;;;;;;;19.58;10.55;;;21.90;99.90;;;;;;4971603;28;20045;-74
2022/08/20 01:58:51;;;;;;;21.65;9.88;;;21.80;99.90;;;;;;4971231;28;20066;-74
2022/08/20 02:01:23;;;;;;;17.13;9.95;;;21.80;99.90;;;;;;4971082;28;20031;-75
2022/08/20 02:03:50;;;;;;;21.95;11.52;;;21.80;99.90;;;;;;4974746;28;20023;-75
2022/08/20 02:06:17;;;;;;;21.45;10.13;;;21.70;99.90;;;;;;4975378;28;20035;-74
2022/08/20 02:08:42;;;;;;;21.10;10.82;;;21.60;99.90;;;;;;4963353;28;20126;-75
2022/08/20 02:11:09;;;;;;;21.17;9.63;;;21.60;99.90;;;;;;4958220;28;20062;-73
2022/08/20 02:13:35;;;;;;;19.95;10.23;;;21.60;99.90;;;;;;4956607;28;20044;-75
2022/08/20 02:16:01;;;;;;;25.48;10.70;;;21.60;99.90;;;;;;4958019;28;20102;-74
2022/08/20 02:18:27;;;;;;;20.65;8.38;;;21.60;99.90;;;;;;4957593;28;20045;-77
2022/08/20 02:20:53;;;;;;;24.33;10.02;;;21.60;99.90;;;;;;4957960;28;20026;-74
2022/08/20 02:23:19;;;;;;;20.60;8.88;;;21.60;99.90;;;;;;4957698;28;20474;-74
2022/08/20 02:25:46;;;;;;;17.73;8.05;;;21.60;99.90;;;;;;4957736;28;20027;-75
2022/08/20 02:28:16;;;;;;;21.73;8.65;;;21.70;99.90;;;;;;4957061;28;20047;-75
2022/08/20 02:30:47;;;;;;;17.60;9.55;;;21.60;99.90;;;;;;4956690;28;20529;-73
2022/08/20 02:33:16;;;;;;;17.25;8.95;;;21.60;99.90;;;;;;4956431;28;20058;-74
2022/08/20 02:35:45;;;;;;;21.77;8.85;;;21.70;99.90;;;;;;4955772;28;20106;-75
2022/08/20 02:38:11;;;;;;;15.90;8.35;;;21.70;99.90;;;;;;4962899;28;20130;-74
2022/08/20 02:40:37;;;;;;;20.83;9.77;;;21.70;99.90;;;;;;4957316;28;20106;-75
2022/08/20 02:43:03;;;;;;;16.85;9.55;;;21.60;99.90;;;;;;4952076;28;20024;-74
2022/08/20 02:45:34;;;;;;;20.65;9.25;;;21.60;99.90;;;;;;4954970;28;20055;-74
2022/08/20 02:48:00;;;;;;;16.10;8.70;;;21.60;99.90;;;;;;4955748;28;20429;-74
2022/08/20 02:50:26;;;;;;;16.25;8.43;;;21.60;99.90;;;;;;4955904;28;20027;-75
2022/08/20 02:52:53;;;;;;;26.77;10.02;;;21.60;99.90;;;;;;4953139;28;20131;-70
2022/08/20 02:55:20;;;;;;;22.55;10.18;;;21.60;99.90;;;;;;4954723;28;20034;-74
2022/08/20 02:57:46;;;;;;;22.60;10.77;;;21.50;99.90;;;;;;4955790;28;20039;-72
2022/08/20 03:00:17;;;;;;;20.75;10.05;;;21.50;99.90;;;;;;4955786;28;20031;-72
2022/08/20 03:02:44;;;;;;;19.75;10.63;;;21.50;99.90;;;;;;4955651;28;20031;-72
2022/08/20 03:05:10;;;;;;;22.30;10.50;;;21.40;99.90;;;;;;4955675;28;20027;-76
2022/08/20 03:07:44;;;;;;;20.63;10.75;;;21.40;99.90;;;;;;4955642;28;20393;-73
2022/08/20 03:10:11;;;;;;;21.48;10.65;;;21.40;99.90;;;;;;4955980;28;20117;-73
2022/08/20 03:12:37;;;;;;;20.48;11.32;;;21.40;99.90;;;;;;4955960;28;20027;-77
2022/08/20 03:15:05;;;;;;;21.77;10.25;;;21.30;99.90;;;;;;4953041;28;20574;-77
2022/08/20 03:17:31;;;;;;;16.75;9.63;;;21.20;99.90;;;;;;4955723;28;20039;-76
2022/08/20 03:19:56;;;;;;;21.05;9.82;;;21.20;99.90;;;;;;4956161;28;20051;-78
2022/08/20 03:22:22;;;;;;;23.88;10.55;;;21.10;99.90;;;;;;4955854;28;20382;-73
2022/08/20 03:24:48;;;;;;;22.58;10.77;;;21.10;99.90;;;;;;4956074;28;20019;-74
2022/08/20 03:27:14;;;;;;;17.63;10.07;;;21.00;99.90;;;;;;4955764;28;20210;-73
2022/08/20 03:29:40;;;;;;;21.33;10.15;;;21.00;99.90;;;;;;4955808;28;20031;-77
2022/08/20 03:32:06;;;;;;;23.20;10.88;;;21.00;99.90;;;;;;4955971;28;20026;-77
2022/08/20 03:34:31;;;;;;;19.63;10.05;;;20.90;99.90;;;;;;4955872;28;20023;-77
2022/08/20 03:36:57;;;;;;;23.65;10.88;;;20.90;99.90;;;;;;4955646;28;20043;-73
2022/08/20 03:39:23;;;;;;;19.30;11.15;;;20.90;99.90;;;;;;4955902;28;20027;-77
2022/08/20 03:41:49;;;;;;;24.98;10.60;;;20.90;99.90;;;;;;4955961;28;20500;-77
2022/08/20 03:44:15;;;;;;;19.08;10.20;;;21.00;99.90;;;;;;4954499;28;20074;-74
2022/08/20 03:46:40;;;;;;;18.17;10.60;;;21.00;99.90;;;;;;4954571;28;20082;-77
2022/08/20 03:49:06;;;;;;;18.50;10.50;;;21.00;99.90;;;;;;4955328;28;20026;-77
2022/08/20 03:51:32;;;;;;;17.88;10.80;;;21.10;99.90;;;;;;4955101;28;20493;-77
2022/08/20 03:53:58;;;;;;;22.17;10.73;;;21.10;99.90;;;;;;4955135;28;20159;-77
2022/08/20 03:56:25;;;;;;;20.05;10.48;;;21.20;99.90;;;;;;4955848;28;20027;-76
2022/08/20 03:58:51;;;;;;;22.20;10.88;;;21.10;99.90;;;;;;4955508;29;20039;-75
2022/08/20 04:01:17;;;;;;;21.92;10.82;;;21.00;99.90;;;;;;4955200;29;20082;-73
2022/08/20 04:03:44;;;;;;;20.15;11.57;;;21.00;99.90;;;;;;4954159;28;20539;-67
2022/08/20 04:06:10;;;;;;;21.65;11.70;;;21.00;99.90;;;;;;4950788;28;20501;-75
2022/08/20 04:08:39;;;;;;;27.17;11.30;;;21.00;99.90;;;;;;4952442;28;20039;-74
2022/08/20 04:11:04;;;;;;;24.10;11.30;;;21.00;99.90;;;;;;4951870;28;20027;-75
2022/08/20 04:13:31;;;;;;;20.67;11.18;;;21.00;99.90;;;;;;4953211;28;20031;-75
2022/08/20 04:15:57;;;;;;;19.92;9.70;;;21.00;99.90;;;;;;4954789;28;20028;-76
2022/08/20 04:18:25;;;;;;;15.40;8.85;;;21.00;99.90;;;;;;4954269;28;20039;-76
2022/08/20 04:20:52;;;;;;;17.55;10.80;;;21.10;99.90;;;;;;4954615;28;20023;-75
2022/08/20 04:23:20;;;;;;;22.52;10.90;;;21.20;99.90;;;;;;4954802;28;20035;-75
2022/08/20 04:25:46;;;;;;;26.38;11.55;;;21.10;99.90;;;;;;4953948;28;20444;-74
2022/08/20 04:28:23;;;;;;;19.75;9.95;;;21.10;99.90;;;;;;4954067;28;20037;-74
2022/08/20 04:30:51;;;;;;;20.17;10.02;;;21.20;99.90;;;;;;4954339;28;20038;-76
2022/08/20 04:33:18;;;;;;;21.33;10.43;;;21.20;99.90;;;;;;4953907;28;20022;-73
2022/08/20 04:35:44;;;;;;;18.23;11.00;;;21.30;99.90;;;;;;4954551;28;20552;-72
2022/08/20 04:38:15;;;;;;;18.58;10.98;;;21.30;99.90;;;;;;4954244;28;20474;-73
2022/08/20 04:40:53;;;;;;;22.45;10.93;;;21.20;99.90;;;;;;4953254;28;20081;-74
2022/08/20 04:43:22;;;;;;;25.40;12.38;;;21.20;99.90;;;;;;4954737;28;20039;-76
2022/08/20 04:45:50;;;;;;;21.00;10.40;;;21.20;99.90;;;;;;4958632;28;20593;-75
2022/08/20 04:48:18;;;;;;;25.55;12.63;;;21.20;99.90;;;;;;4954437;28;20035;-74
2022/08/20 04:50:45;;;;;;;27.42;14.35;;;21.20;99.90;;;;;;4953465;28;20493;-75
2022/08/20 04:53:15;;;;;;;24.08;13.02;;;21.20;99.90;;;;;;4955054;28;20031;-75
2022/08/20 04:55:43;;;;;;;29.05;11.93;;;21.20;99.90;;;;;;4955244;28;20024;-73
2022/08/20 04:58:12;;;;;;;23.45;11.93;;;21.30;99.90;;;;;;4954456;28;20478;-74
2022/08/20 05:00:38;;;;;;;21.83;10.52;;;21.20;99.90;;;;;;4954344;28;20026;-72
2022/08/20 05:03:07;;;;;;;23.23;10.55;;;21.30;99.90;;;;;;4953845;28;20028;-72
2022/08/20 05:05:34;;;;;;;18.38;10.20;;;21.30;99.90;;;;;;4953446;28;20066;-73
2022/08/20 05:08:00;;;;;;;24.55;10.65;;;21.20;99.90;;;;;;4953871;28;20031;-74
2022/08/20 05:10:27;;;;;;;17.17;11.70;;;21.30;99.90;;;;;;4954175;28;20015;-73
2022/08/20 05:12:53;;;;;;;21.13;11.35;;;21.30;99.90;;;;;;4954371;28;20393;-74
2022/08/20 05:15:19;;;;;;;17.88;9.90;;;21.30;99.90;;;;;;4953938;28;20023;-73
2022/08/20 05:17:46;;;;;;;18.35;9.52;;;21.40;99.90;;;;;;4954750;28;20134;-74
2022/08/20 05:20:16;;;;;;;27.90;13.05;;;21.50;99.90;;;;;;4953771;28;20094;-72
2022/08/20 05:22:43;;;;;;;17.83;11.95;;;21.50;99.90;;;;;;4953762;28;20030;-73
2022/08/20 05:25:09;;;;;;;19.38;10.75;;;21.40;99.90;;;;;;4954088;28;20026;-64
2022/08/20 05:27:35;;;;;;;18.20;10.10;;;21.30;99.90;;;;;;4954214;28;20049;-72
2022/08/20 05:30:09;;;;;;;21.55;10.95;;;21.30;99.90;;;;;;4954254;28;20462;-72
2022/08/20 05:32:36;;;;;;;36.45;21.13;;;21.30;99.90;;;;;;4953454;28;20389;-71
2022/08/20 05:35:04;;;;;;;31.85;17.60;;;21.30;99.90;;;;;;4954117;28;20033;-73
2022/08/20 05:37:30;;;;;;;20.40;11.30;;;21.40;99.90;;;;;;4955440;28;20047;-72
2022/08/20 05:39:56;;;;;;;15.25;9.27;;;21.40;99.90;;;;;;4957699;28;20023;-72
2022/08/20 05:42:22;;;;;;;17.73;9.40;;;21.40;99.90;;;;;;4957579;28;20027;-72
2022/08/20 05:44:48;;;;;;;34.40;18.90;;;21.40;99.90;;;;;;4957456;28;20094;-71
2022/08/20 05:47:14;;;;;;;25.65;11.32;;;21.30;99.90;;;;;;4957213;28;20047;-71
2022/08/20 05:49:40;;;;;;;27.73;11.77;;;21.40;99.90;;;;;;4957862;28;20098;-72
2022/08/20 05:52:06;;;;;;;22.25;10.30;;;21.40;99.90;;;;;;4957793;28;20055;-73
2022/08/20 05:54:32;;;;;;;21.48;9.52;;;21.40;99.90;;;;;;4966658;28;20059;-73
2022/08/20 05:56:58;;;;;;;20.85;9.98;;;21.50;99.90;;;;;;4957482;28;20501;-73
2022/08/20 05:59:25;;;;;;;17.92;8.98;;;21.40;99.90;;;;;;4957914;28;20417;-72
2022/08/20 06:01:51;;;;;;;20.67;9.77;;;21.40;99.90;;;;;;4956997;28;20466;-68
2022/08/20 06:04:23;;;;;;;17.27;8.90;;;21.40;99.90;;;;;;4952988;28;20070;-74
2022/08/20 06:06:57;;;;;;;21.00;10.02;;;21.30;99.90;;;;;;4956598;28;20473;-68
2022/08/20 06:09:23;;;;;;;26.67;11.98;;;21.20;99.90;;;;;;4956746;28;20031;-74
2022/08/20 06:11:49;;;;;;;21.75;9.77;;;21.30;99.90;;;;;;4957522;28;20028;-75
2022/08/20 06:14:15;;;;;;;30.42;10.32;;;21.20;99.90;;;;;;4957278;28;20386;-66
2022/08/20 06:16:42;;;;;;;21.52;10.48;;;21.00;99.90;;;;;;4955671;28;20114;-76
2022/08/20 06:19:08;;;;;;;20.25;9.80;;;21.00;99.90;;;;;;4954735;28;20042;-74
2022/08/20 06:21:34;;;;;;;23.70;11.45;;;21.00;99.90;;;;;;4955785;28;20378;-66
2022/08/20 06:23:59;;;;;;;21.58;10.15;;;20.90;99.90;;;;;;4957139;28;20390;-76
2022/08/20 06:26:25;;;;;;;17.80;9.30;;;20.80;99.90;;;;;;4957072;28;20028;-78
2022/08/20 06:28:52;;;;;;;23.83;9.88;;;20.80;99.90;;;;;;4957281;29;20043;-76
2022/08/20 06:31:18;;;;;;;19.20;9.65;;;20.90;99.90;;;;;;4956633;28;20496;-78
2022/08/20 06:33:43;;;;;;;23.55;8.68;;;20.90;99.90;;;;;;4959887;28;20047;-77
2022/08/20 06:36:09;;;;;;;23.70;10.02;;;21.00;99.90;;;;;;4957132;28;20114;-79
2022/08/20 06:38:35;;;;;;;16.17;9.15;;;21.00;99.90;;;;;;4956150;28;20066;-80
2022/08/20 06:41:01;;;;;;;23.65;10.88;;;21.10;99.90;;;;;;4956244;28;20023;-79
2022/08/20 06:43:27;;;;;;;18.42;10.30;;;21.20;99.90;;;;;;4956214;28;20039;-78
2022/08/20 06:45:56;;;;;;;17.13;10.43;;;21.10;99.90;;;;;;4956436;28;20105;-77
2022/08/20 06:48:23;;;;;;;20.73;10.10;;;21.20;99.90;;;;;;4956462;28;20492;-78
2022/08/20 06:50:49;;;;;;;22.52;11.13;;;21.20;99.90;;;;;;4956434;28;20023;-79
2022/08/20 06:53:19;;;;;;;20.02;10.77;;;21.20;99.90;;;;;;4956791;28;20397;-79
2022/08/20 06:55:50;;;;;;;23.95;11.18;;;21.20;99.90;;;;;;4956914;28;20162;-79
2022/08/20 06:58:16;;;;;;;24.92;12.02;;;21.20;99.90;;;;;;4956799;28;20086;-79
2022/08/20 07:00:43;;;;;;;24.33;12.73;;;21.30;99.90;;;;;;4957157;28;20023;-65
2022/08/20 07:03:11;;;;;;;23.77;12.30;;;21.40;99.90;;;;;;4956244;28;20050;-79
2022/08/20 07:05:41;;;;;;;19.98;10.65;;;21.30;99.90;;;;;;4956047;28;20104;-75
2022/08/20 07:08:08;;;;;;;23.08;12.40;;;21.40;99.90;;;;;;4955470;28;20039;-81
2022/08/20 07:10:34;;;;;;;21.92;12.90;;;21.30;99.90;;;;;;4945259;28;20225;-81
2022/08/20 07:13:00;;;;;;;22.33;13.65;;;21.30;99.90;;;;;;4956176;28;20126;-82
2022/08/20 07:15:26;;;;;;;25.17;13.85;;;21.20;99.90;;;;;;4955571;28;20023;-80
2022/08/20 07:17:59;;;;;;;23.10;12.95;;;21.20;99.90;;;;;;4955882;28;20035;-66
2022/08/20 07:20:26;;;;;;;28.50;12.95;;;21.20;99.90;;;;;;4955442;29;20031;-79
2022/08/20 07:22:52;;;;;;;26.73;12.52;;;21.20;99.90;;;;;;4956280;28;20019;-80
2022/08/20 07:25:20;;;;;;;23.90;11.20;;;21.10;99.90;;;;;;4954919;28;20029;-81
2022/08/20 07:27:47;;;;;;;25.00;11.95;;;21.30;99.90;;;;;;4955717;28;20034;-80
2022/08/20 07:33:07;;;;;;;26.27;11.23;;;21.30;99.90;;;;;;4954979;28;20430;-83
2022/08/20 07:35:33;;;;;;;18.00;11.45;;;21.20;99.90;;;;;;4955487;28;20039;-81
2022/08/20 07:37:59;;;;;;;20.85;11.55;;;21.20;99.90;;;;;;4956096;28;20031;-82
2022/08/20 07:40:32;;;;;;;20.92;11.23;;;21.30;99.90;;;;;;4956157;28;20024;-79
2022/08/20 07:42:59;;;;;;;19.33;11.52;;;21.40;99.90;;;;;;4956125;28;20470;-69
2022/08/20 07:45:26;;;;;;;23.27;11.50;;;21.40;99.90;;;;;;4956273;28;20093;-81
2022/08/20 07:47:52;;;;;;;18.65;10.48;;;21.40;99.90;;;;;;4956345;28;20038;-82
2022/08/20 07:50:22;;;;;;;21.20;12.45;;;21.30;99.90;;;;;;4956595;29;20082;-82
2022/08/20 07:52:51;;;;;;;21.27;12.88;;;21.30;99.90;;;;;;4958080;28;20035;-82
2022/08/20 07:55:17;;;;;;;19.48;11.70;;;21.20;99.90;;;;;;4958137;28;20023;-77
2022/08/20 07:57:45;;;;;;;21.30;11.77;;;21.20;99.90;;;;;;4957914;29;20379;-82
2022/08/20 08:00:12;;;;;;;23.90;13.07;;;21.10;99.90;;;;;;4955149;28;20023;-82
2022/08/20 08:02:38;;;;;;;19.25;10.93;;;21.10;99.90;;;;;;4955566;29;20062;-77
2022/08/20 08:05:05;;;;;;;20.88;12.23;;;21.20;99.90;;;;;;4955018;28;20019;-74
2022/08/20 08:07:32;;;;;;;18.17;11.55;;;21.10;99.90;;;;;;4955383;29;20019;-79
2022/08/20 08:10:00;;;;;;;26.25;13.68;;;21.10;99.90;;;;;;4955390;28;20497;-78
2022/08/20 08:12:33;;;;;;;18.13;11.13;;;21.10;99.90;;;;;;4954183;28;20027;-77
2022/08/20 08:14:59;;;;;;;22.73;11.60;;;21.20;99.90;;;;;;4955274;28;20131;-79
2022/08/20 08:17:27;;;;;;;27.73;12.63;;;21.30;99.90;;;;;;4964573;28;20031;-78
2022/08/20 08:19:52;;;;;;;18.95;11.40;;;21.40;99.90;;;;;;4962181;28;20058;-79
2022/08/20 08:22:19;;;;;;;25.02;12.80;;;21.40;99.90;;;;;;4955383;28;20549;-79
2022/08/20 08:24:46;;;;;;;20.98;13.10;;;21.50;99.90;;;;;;4955179;28;20031;-77
2022/08/20 08:27:17;;;;;;;20.75;13.18;;;21.50;99.90;;;;;;4969931;28;20385;-78
2022/08/20 08:29:44;;;;;;;27.48;13.45;;;21.60;99.90;;;;;;4954606;28;20066;-77
2022/08/20 08:32:10;;;;;;;20.55;13.25;;;21.60;99.90;;;;;;4955930;28;20031;-81
2022/08/20 08:34:37;;;;;;;24.55;13.57;;;21.70;99.90;;;;;;4954469;28;20558;-77
2022/08/20 08:37:04;;;;;;;21.73;12.50;;;21.70;99.90;;;;;;4953180;28;20031;-78
2022/08/20 08:39:31;;;;;;;27.02;13.55;;;21.70;99.90;;;;;;4959212;28;20034;-66
2022/08/20 08:42:01;;;;;;;31.35;17.48;;;21.60;99.90;;;;;;4954515;28;20476;-64
2022/08/20 08:44:34;;;;;;;24.23;13.23;;;21.70;99.90;;;;;;4954578;28;20050;-70
2022/08/20 08:47:17;;;;;;;22.70;12.50;;;21.80;99.90;;;;;;4954920;28;20042;-77
2022/08/20 08:49:45;;;;;;;25.23;12.23;;;22.00;99.90;;;;;;4954476;28;20035;-77
2022/08/20 08:52:21;;;;;;;19.00;12.10;;;22.10;99.90;;;;;;4954866;28;20027;-76
2022/08/20 08:54:51;;;;;;;20.42;12.57;;;22.20;99.90;;;;;;4954466;28;20070;-74
2022/08/20 08:57:17;;;;;;;25.08;14.55;;;22.20;99.90;;;;;;4954487;28;20474;-77
2022/08/20 09:00:10;;;;;;;30.98;17.33;;;22.20;99.90;;;;;;4954647;28;20046;-76
2022/08/20 09:02:37;;;;;;;31.92;16.92;;;22.40;99.90;;;;;;4956922;28;20086;-81
2022/08/20 09:05:13;;;;;;;24.98;15.57;;;22.60;99.90;;;;;;4960372;28;20027;-79
2022/08/20 09:07:42;;;;;;;22.95;15.45;;;23.00;99.90;;;;;;4954711;28;20028;-81
2022/08/20 09:10:08;;;;;;;31.65;14.80;;;23.30;99.90;;;;;;4954827;28;20034;-80
2022/08/20 09:12:34;;;;;;;23.40;14.88;;;23.40;99.90;;;;;;4954059;28;20028;-82
2022/08/20 09:15:00;;;;;;;26.75;13.27;;;23.40;99.90;;;;;;4954300;28;20038;-82
2022/08/20 09:17:26;;;;;;;28.05;12.35;;;23.50;99.90;;;;;;4954145;28;20505;-81
2022/08/20 09:19:51;;;;;;;17.85;11.52;;;23.70;99.90;;;;;;4954435;28;20020;-78
2022/08/20 09:22:20;;;;;;;20.85;11.43;;;23.60;99.90;;;;;;4955106;28;20035;-78
2022/08/20 09:24:46;;;;;;;23.27;14.10;;;23.60;99.90;;;;;;4954337;28;20027;-75
2022/08/20 09:27:12;;;;;;;20.67;11.60;;;23.60;99.90;;;;;;4954486;28;20035;-78
2022/08/20 09:29:39;;;;;;;22.38;12.52;;;23.60;99.90;;;;;;4954790;28;20031;-76
2022/08/20 09:32:18;;;;;;;16.77;11.15;;;23.40;99.90;;;;;;4954313;28;20037;-77
2022/08/20 09:34:46;;;;;;;29.20;11.40;;;23.70;99.90;;;;;;4954584;28;20027;-74
2022/08/20 09:37:13;;;;;;;20.20;11.13;;;23.70;99.90;;;;;;4954892;28;20094;-66
2022/08/20 09:39:39;;;;;;;16.55;10.85;;;23.70;99.90;;;;;;4969897;28;20027;-81
2022/08/20 09:42:11;;;;;;;17.92;11.18;;;23.60;99.90;;;;;;4954203;28;20019;-78
2022/08/20 09:44:37;;;;;;;19.83;11.60;;;23.80;99.90;;;;;;4954304;29;20066;-79
2022/08/20 09:47:06;;;;;;;21.42;12.00;;;24.00;99.90;;;;;;4953675;28;20047;-70
2022/08/20 09:49:32;;;;;;;20.02;10.13;;;24.20;99.90;;;;;;4954110;28;20027;-78
2022/08/20 09:52:00;;;;;;;18.17;10.45;;;24.30;99.90;;;;;;4953928;28;20466;-75
2022/08/20 09:54:28;;;;;;;20.80;10.52;;;24.50;99.90;;;;;;4956839;28;20062;-79
2022/08/20 09:56:56;;;;;;;21.73;11.80;;;24.90;99.90;;;;;;4954217;28;20425;-77
2022/08/20 09:59:23;;;;;;;20.08;11.40;;;25.00;99.90;;;;;;4952723;28;20031;-78
2022/08/20 10:01:49;;;;;;;20.58;11.15;;;25.20;99.90;;;;;;4950686;28;20019;-77
2022/08/20 10:04:15;;;;;;;20.77;10.95;;;25.20;99.90;;;;;;4952487;29;20363;-76
2022/08/20 10:06:41;;;;;;;22.48;10.77;;;25.30;99.90;;;;;;4953560;28;20064;-76
2022/08/20 10:09:07;;;;;;;15.85;10.40;;;25.30;99.90;;;;;;4952405;28;20110;-76
2022/08/20 10:11:33;;;;;;;24.42;11.00;;;25.30;99.90;;;;;;4951999;28;20030;-76
2022/08/20 10:13:59;;;;;;;17.85;9.65;;;25.30;99.90;;;;;;4952371;28;20157;-68
2022/08/20 10:16:25;;;;;;;22.27;10.25;;;25.40;99.90;;;;;;4952753;28;20118;-71
2022/08/20 10:18:51;;;;;;;23.48;10.90;;;25.50;99.90;;;;;;4955243;28;20031;-80
2022/08/20 10:21:17;;;;;;;17.83;9.65;;;25.60;99.90;;;;;;4952734;28;20386;-76
2022/08/20 10:23:43;;;;;;;18.05;10.43;;;25.70;99.90;;;;;;4953605;28;20031;-67
2022/08/20 10:26:10;;;;;;;18.25;11.55;;;25.60;99.90;;;;;;4956106;28;20023;-69
2022/08/20 10:28:37;;;;;;;19.45;10.00;;;25.60;99.90;;;;;;4956276;28;20062;-75
2022/08/20 10:31:06;;;;;;;18.10;9.38;;;25.70;99.90;;;;;;4956095;28;20019;-74
2022/08/20 10:33:32;;;;;;;22.52;9.93;;;25.70;99.90;;;;;;4955586;28;20085;-72
2022/08/20 10:36:04;;;;;;;19.33;8.75;;;25.70;99.90;;;;;;4956063;28;20856;-74
2022/08/20 10:38:30;;;;;;;14.23;7.90;;;25.60;99.90;;;;;;4956169;29;20410;-67
2022/08/20 10:40:55;;;;;;;21.80;8.18;;;25.60;99.90;;;;;;4956244;28;20023;-79
2022/08/20 10:43:21;;;;;;;12.73;7.70;;;25.40;99.90;;;;;;4955350;28;20035;-73
2022/08/20 10:45:47;;;;;;;16.35;7.72;;;25.20;99.90;;;;;;4955366;28;20052;-78
2022/08/20 10:48:13;;;;;;;15.20;7.65;;;25.20;99.90;;;;;;4956274;28;20079;-78
2022/08/20 10:50:39;;;;;;;14.05;7.45;;;25.20;99.90;;;;;;4955292;28;20035;-75
2022/08/20 10:53:04;;;;;;;17.20;8.73;;;25.20;99.90;;;;;;4954975;28;20571;-66
2022/08/20 10:55:30;;;;;;;14.65;8.95;;;25.10;99.90;;;;;;4953229;28;20508;-75
2022/08/20 10:57:56;;;;;;;19.42;8.65;;;25.00;99.90;;;;;;4954587;28;20035;-75
2022/08/20 11:00:22;;;;;;;25.35;9.55;;;25.00;99.90;;;;;;4955374;28;20057;-78
2022/08/20 11:02:47;;;;;;;16.55;9.60;;;24.80;99.90;;;;;;4955107;28;20031;-78
2022/08/20 11:05:13;;;;;;;18.13;8.93;;;24.70;99.90;;;;;;4955073;28;20031;-77
2022/08/20 11:07:41;;;;;;;17.45;8.27;;;25.00;99.90;;;;;;4955625;28;20027;-81
2022/08/20 11:10:08;;;;;;;18.02;9.38;;;25.20;99.90;;;;;;4955311;28;20019;-74
2022/08/20 11:12:34;;;;;;;16.35;8.68;;;25.20;99.90;;;;;;4955382;28;20037;-78
2022/08/20 11:15:00;;;;;;;19.02;8.88;;;25.40;99.90;;;;;;4955461;28;20114;-79
2022/08/20 11:17:29;;;;;;;20.92;8.95;;;25.30;99.90;;;;;;4955748;28;20109;-80
2022/08/20 11:19:56;;;;;;;17.85;8.27;;;25.20;99.90;;;;;;4956714;28;20023;-80
2022/08/20 11:22:23;;;;;;;16.77;7.90;;;25.20;99.90;;;;;;4956689;28;20023;-66
2022/08/20 11:24:49;;;;;;;16.92;8.40;;;25.40;99.90;;;;;;4956183;28;20093;-80
2022/08/20 11:27:25;;;;;;;14.52;7.25;;;25.60;99.90;;;;;;4955859;28;20470;-80
2022/08/20 11:29:51;;;;;;;18.65;8.75;;;25.60;99.90;;;;;;4987933;28;20403;-79
2022/08/20 11:32:17;;;;;;;15.25;8.10;;;25.60;99.90;;;;;;4956284;28;20019;-80
2022/08/20 11:34:43;;;;;;;14.05;7.78;;;25.60;99.90;;;;;;4955341;28;20054;-79
2022/08/20 11:37:11;;;;;;;18.20;8.32;;;26.00;99.90;;;;;;4968150;28;20078;-79
2022/08/20 11:39:36;;;;;;;18.30;9.85;;;26.10;99.90;;;;;;4955889;28;20026;-78
2022/08/20 11:42:02;;;;;;;18.08;9.50;;;26.30;99.90;;;;;;4955723;28;20031;-79
2022/08/20 11:44:29;;;;;;;19.23;8.68;;;26.50;99.90;;;;;;4986911;28;20175;-79
2022/08/20 11:46:58;;;;;;;17.60;9.00;;;26.50;99.90;;;;;;4955514;28;20035;-79
2022/08/20 11:49:24;;;;;;;20.05;9.55;;;26.50;99.90;;;;;;4955376;28;20031;-79
2022/08/20 11:51:50;;;;;;;15.82;9.65;;;25.90;99.90;;;;;;4955961;28;20414;-79
2022/08/20 11:54:16;;;;;;;16.25;8.73;;;25.90;99.90;;;;;;4956062;29;20019;-79
2022/08/20 11:56:42;;;;;;;18.58;9.13;;;25.90;99.90;;;;;;4955946;28;20030;-76
2022/08/20 11:59:08;;;;;;;14.93;8.18;;;25.90;99.90;;;;;;4955571;28;20031;-78
2022/08/20 12:01:34;;;;;;;15.55;9.23;;;26.10;99.90;;;;;;4955636;28;20023;-78
2022/08/20 12:03:59;;;;;;;16.17;7.97;;;26.30;99.90;;;;;;4955006;28;20030;-79
2022/08/20 12:06:25;;;;;;;18.50;9.10;;;25.60;99.90;;;;;;4955977;28;20492;-79
2022/08/20 12:08:51;;;;;;;14.93;7.95;;;25.90;99.90;;;;;;4955937;28;20528;-79
2022/08/20 12:11:17;;;;;;;17.27;8.88;;;26.00;99.90;;;;;;4954872;28;20497;-78
2022/08/20 12:13:43;;;;;;;15.75;7.68;;;26.20;99.90;;;;;;4955521;28;20098;-79
2022/08/20 12:16:08;;;;;;;18.85;8.13;;;26.50;99.90;;;;;;4955067;28;20031;-79
2022/08/20 12:18:34;;;;;;;18.10;8.88;;;26.70;99.90;;;;;;4955273;28;20101;-79
2022/08/20 12:21:00;;;;;;;21.15;8.85;;;26.80;99.90;;;;;;4955518;28;20069;-78
2022/08/20 12:23:26;;;;;;;20.90;8.38;;;26.90;99.90;;;;;;4955543;28;20490;-79
2022/08/20 12:25:52;;;;;;;23.63;9.23;;;26.90;99.90;;;;;;4954266;28;20100;-78
2022/08/20 12:28:18;;;;;;;20.40;9.65;;;27.00;99.90;;;;;;4955482;28;20450;-76
2022/08/20 12:30:44;;;;;;;15.90;8.27;;;27.20;99.90;;;;;;4953305;28;20082;-72
2022/08/20 12:33:10;;;;;;;22.35;9.35;;;27.20;99.90;;;;;;4953767;28;20043;-74
2022/08/20 12:35:36;;;;;;;23.75;9.13;;;27.30;99.90;;;;;;4953218;28;20023;-76
2022/08/20 12:38:05;;;;;;;14.32;8.63;;;27.40;99.90;;;;;;4954234;28;20038;-66